עמוד ראשי
METAR-TAF:

METAR-TAF

שדות תעופה :

Comodoro Rivadavia, ארגנטינה

קו רוחב: 45-47S, קו אורך: 067-30W, גובה: 58מטר

תצפית מזג אוויר נוכחית

הדו"ח נערך לפני 1 שעות ו 5דקות, בשעה 02:00 UTC
רוח 8קשר מכיוון דרום-מערב
טמפרטורת 1 צלסיוס
לחות 75%
לחץ 1023 hPa
ראות 10 קילומטר או יותר
מעט עננים בגובה 2000רגל
עננים פזורים בגובה 4100רגל

METAR: SAVC 200200Z 22008KT 9999 FEW020 SCT041 01/M03 Q1023

זמן: 00:05 (03:05 UTC)

תחזית

הדו"ח נערך לפני 4 שעות ו 5דקות, בשעה 23:00 UTC
תחזית בתוקף מ 20 ב 00 UTC עד 20 ב 24 UTC
רוח 15קשר מכיוון דרום-מערב
ראות: 5000מטר
עננים פזורים בגובה 2000רגל
מעונן בגובה 3000רגל
גשם
יעשה מ
20 ב 05 UTC עד 20 ב 07 UTC
ראות: 3000מטר
עננים בינוניים בגובה 400רגל
מעונן בגובה 1500רגל
טפטוף, שלג קל
יעשה מ
20 ב 15 UTC עד 20 ב 17 UTC
רוח 10קשר מכיוון צפון-מזרח
ראות: 5000מטר
מעונן בגובה 200רגל
גשם, אד,

TAF: SAVC 192300Z 2000/2024 22015KT 5000 RA SCT020 OVC030 TX04/2018Z TNM02/2010Z BECMG 2005/2007 3000 DZ -SN BKN004 OVC015 BECMG 2015/2017 05010KT 5000 RA BR OVC002

תצפיות ותחזיות מזג אוויר לגבי יותר מ- 4,000 שדות תעופה ברחבי העולם. דוחות METAR ו- TAF.

התחנות הזמינות מסומנות בנקודות צהובות ואדומות על גבי המפה.

העבר את העכבר לנקודה הצבעונית על מנת לראות את שם התחנה.

לאחר מכן, לחץ כדי לראות את תוכן ואת תחזיות מזג האוויר.

כדי לשנות את המפה: לחץ על הכפתורים הירוקים עם הפלוס השחור כדי להתקרב; על הכפתור הירוק עם המקף כדי להתרחק; או בחיצים הירוקים למפות סמוכות.


METAR-TAF: